Panther Forest, Arkansas
Current Conditions -  °F | °C
As of 9:53 AM on Monday 24 Nov 2014 (Local Time) from KGLH Reporting Station
Clear Clear  
Wind Chill: 12°   Ceiling: Unl
Heat Index: 12°   Visibility: 10mi
Dew Point:   Wind: 15mph
Humidity: 51%   Direction: 310°NW
Pressure: 29.94"   Gusts: NA
Location:  33.3324°N, 91.3183°W
Report Text: KGLH 241553Z AUTO 31013KT 10SM CLR 12/02 A2994 RMK AO2 SLP145 T01220022
Loading
Personal Weather Stations






























Interactive Weather Map New forecast layout! Learn more

10-Day Weather Forecast

Advertisements
Track Severe Weather on mobile